sensor_id;sensor_type;location;lat;lon;timestamp;P1;durP1;ratioP1;P2;durP2;ratioP2
18647;SDS011;9453;50.294;18.644;2022-09-09T04:52:43;5.70;;;4.07;;
18647;SDS011;9453;50.294;18.644;2022-09-09T04:55:11;6.85;;;4.95;;
18647;SDS011;9453;50.294;18.644;2022-09-09T04:57:38;5.55;;;3.83;;
18647;SDS011;9453;50.294;18.644;2022-09-09T05:00:06;6.30;;;4.07;;
18647;SDS011;9453;50.294;18.644;2022-09-09T05:02:36;6.20;;;3.78;;
18647;SDS011;9453;50.294;18.644;2022-09-09T05:05:04;5.03;;;3.25;;
18647;SDS011;9453;50.294;18.644;2022-09-09T05:07:31;4.68;;;3.72;;
18647;SDS011;9453;50.294;18.644;2022-09-09T05:09:59;4.65;;;3.38;;
18647;SDS011;9453;50.294;18.644;2022-09-09T05:12:28;5.85;;;3.63;;
18647;SDS011;9453;50.294;18.644;2022-09-09T05:14:56;5.13;;;3.60;;
18647;SDS011;9453;50.294;18.644;2022-09-09T05:17:23;4.38;;;3.30;;
18647;SDS011;9453;50.294;18.644;2022-09-09T05:19:50;4.32;;;3.20;;
18647;SDS011;9453;50.294;18.644;2022-09-09T05:22:18;7.78;;;4.30;;
18647;SDS011;9453;50.294;18.644;2022-09-09T05:24:46;6.47;;;4.07;;
18647;SDS011;9453;50.294;18.644;2022-09-09T05:27:17;17.75;;;6.13;;
18647;SDS011;9453;50.294;18.644;2022-09-09T05:29:44;6.32;;;4.10;;
18647;SDS011;9453;50.294;18.644;2022-09-09T05:32:11;6.93;;;3.85;;
18647;SDS011;9453;50.294;18.644;2022-09-09T05:34:40;7.65;;;3.67;;
18647;SDS011;9453;50.294;18.644;2022-09-09T05:37:07;12.85;;;4.68;;
18647;SDS011;9453;50.294;18.644;2022-09-09T05:39:33;8.65;;;4.07;;
18647;SDS011;9453;50.294;18.644;2022-09-09T05:42:02;5.05;;;3.20;;
18647;SDS011;9453;50.294;18.644;2022-09-09T05:44:31;5.97;;;3.13;;
18647;SDS011;9453;50.294;18.644;2022-09-09T05:46:58;16.83;;;5.60;;
18647;SDS011;9453;50.294;18.644;2022-09-09T05:49:25;10.48;;;4.85;;
18647;SDS011;9453;50.294;18.644;2022-09-09T05:51:51;7.15;;;4.30;;
18647;SDS011;9453;50.294;18.644;2022-09-09T05:54:19;19.02;;;5.90;;
18647;SDS011;9453;50.294;18.644;2022-09-09T05:56:46;9.85;;;4.75;;
18647;SDS011;9453;50.294;18.644;2022-09-09T05:59:14;10.35;;;5.25;;
18647;SDS011;9453;50.294;18.644;2022-09-09T06:01:43;9.57;;;5.32;;
18647;SDS011;9453;50.294;18.644;2022-09-09T06:04:10;8.55;;;4.88;;
18647;SDS011;9453;50.294;18.644;2022-09-09T06:06:37;7.63;;;4.55;;
18647;SDS011;9453;50.294;18.644;2022-09-09T06:09:05;11.23;;;5.90;;
18647;SDS011;9453;50.294;18.644;2022-09-09T06:11:35;10.32;;;5.50;;
18647;SDS011;9453;50.294;18.644;2022-09-09T06:14:03;9.40;;;5.10;;
18647;SDS011;9453;50.294;18.644;2022-09-09T06:16:30;10.93;;;5.30;;
18647;SDS011;9453;50.294;18.644;2022-09-09T06:19:00;9.38;;;5.03;;
18647;SDS011;9453;50.294;18.644;2022-09-09T06:21:29;6.80;;;4.63;;
18647;SDS011;9453;50.294;18.644;2022-09-09T06:23:57;14.10;;;5.47;;
18647;SDS011;9453;50.294;18.644;2022-09-09T06:26:25;13.38;;;5.25;;
18647;SDS011;9453;50.294;18.644;2022-09-09T06:28:53;6.55;;;4.35;;
18647;SDS011;9453;50.294;18.644;2022-09-09T06:31:23;11.77;;;5.35;;
18647;SDS011;9453;50.294;18.644;2022-09-09T06:33:51;9.32;;;5.43;;
18647;SDS011;9453;50.294;18.644;2022-09-09T06:36:22;7.80;;;5.50;;
18647;SDS011;9453;50.294;18.644;2022-09-09T06:38:50;10.13;;;5.45;;
18647;SDS011;9453;50.294;18.644;2022-09-09T06:41:17;10.45;;;5.63;;
18647;SDS011;9453;50.294;18.644;2022-09-09T06:43:46;13.52;;;5.85;;
18647;SDS011;9453;50.294;18.644;2022-09-09T06:46:14;22.05;;;8.35;;
18647;SDS011;9453;50.294;18.644;2022-09-09T06:48:42;11.77;;;6.60;;
18647;SDS011;9453;50.294;18.644;2022-09-09T06:51:11;7.82;;;5.20;;
18647;SDS011;9453;50.294;18.644;2022-09-09T06:53:42;21.95;;;8.50;;
18647;SDS011;9453;50.294;18.644;2022-09-09T06:56:21;8.50;;;6.38;;
18647;SDS011;9453;50.294;18.644;2022-09-09T06:58:49;9.18;;;5.93;;
18647;SDS011;9453;50.294;18.644;2022-09-09T07:01:17;9.68;;;5.68;;
18647;SDS011;9453;50.294;18.644;2022-09-09T07:03:46;8.10;;;5.38;;
18647;SDS011;9453;50.294;18.644;2022-09-09T07:06:16;7.03;;;4.47;;
18647;SDS011;9453;50.294;18.644;2022-09-09T07:08:49;6.80;;;4.50;;
18647;SDS011;9453;50.294;18.644;2022-09-09T07:11:17;7.22;;;4.57;;
18647;SDS011;9453;50.294;18.644;2022-09-09T07:13:44;9.80;;;4.63;;
18647;SDS011;9453;50.294;18.644;2022-09-09T07:16:12;7.93;;;4.80;;
18647;SDS011;9453;50.294;18.644;2022-09-09T07:18:40;7.38;;;4.53;;
18647;SDS011;9453;50.294;18.644;2022-09-09T07:21:08;5.85;;;4.13;;
18647;SDS011;9453;50.294;18.644;2022-09-09T07:23:37;6.65;;;4.22;;
18647;SDS011;9453;50.294;18.644;2022-09-09T07:26:08;11.45;;;4.50;;
18647;SDS011;9453;50.294;18.644;2022-09-09T07:28:36;10.73;;;4.10;;
18647;SDS011;9453;50.294;18.644;2022-09-09T07:31:04;11.15;;;5.32;;
18647;SDS011;9453;50.294;18.644;2022-09-09T07:33:32;8.65;;;4.90;;
18647;SDS011;9453;50.294;18.644;2022-09-09T07:36:04;7.32;;;4.70;;
18647;SDS011;9453;50.294;18.644;2022-09-09T07:38:37;8.35;;;4.70;;
18647;SDS011;9453;50.294;18.644;2022-09-09T07:41:06;11.40;;;6.47;;
18647;SDS011;9453;50.294;18.644;2022-09-09T07:43:37;10.48;;;6.00;;
18647;SDS011;9453;50.294;18.644;2022-09-09T07:46:05;7.03;;;5.20;;
18647;SDS011;9453;50.294;18.644;2022-09-09T07:48:32;7.63;;;4.80;;
18647;SDS011;9453;50.294;18.644;2022-09-09T07:51:04;8.85;;;5.32;;
18647;SDS011;9453;50.294;18.644;2022-09-09T07:53:33;5.68;;;4.28;;
18647;SDS011;9453;50.294;18.644;2022-09-09T07:56:04;4.65;;;3.75;;
18647;SDS011;9453;50.294;18.644;2022-09-09T07:58:35;4.30;;;3.80;;
18647;SDS011;9453;50.294;18.644;2022-09-09T08:01:06;4.47;;;3.60;;
18647;SDS011;9453;50.294;18.644;2022-09-09T08:03:34;5.18;;;3.72;;
18647;SDS011;9453;50.294;18.644;2022-09-09T08:06:02;5.35;;;4.15;;
18647;SDS011;9453;50.294;18.644;2022-09-09T08:08:29;6.82;;;4.40;;
18647;SDS011;9453;50.294;18.644;2022-09-09T08:11:03;8.45;;;5.03;;
18647;SDS011;9453;50.294;18.644;2022-09-09T08:13:32;8.88;;;5.35;;
18647;SDS011;9453;50.294;18.644;2022-09-09T08:16:05;5.93;;;4.60;;
18647;SDS011;9453;50.294;18.644;2022-09-09T08:18:33;7.65;;;4.30;;
18647;SDS011;9453;50.294;18.644;2022-09-09T08:21:07;6.20;;;4.38;;
18647;SDS011;9453;50.294;18.644;2022-09-09T08:23:36;4.65;;;4.07;;
18647;SDS011;9453;50.294;18.644;2022-09-09T08:26:07;7.85;;;5.93;;
18647;SDS011;9453;50.294;18.644;2022-09-09T08:28:36;7.35;;;4.65;;
18647;SDS011;9453;50.294;18.644;2022-09-09T08:31:09;6.50;;;4.15;;
18647;SDS011;9453;50.294;18.644;2022-09-09T08:33:38;7.18;;;4.47;;
18647;SDS011;9453;50.294;18.644;2022-09-09T08:36:06;4.88;;;3.85;;
18647;SDS011;9453;50.294;18.644;2022-09-09T08:38:36;4.30;;;3.50;;
18647;SDS011;9453;50.294;18.644;2022-09-09T08:41:07;4.72;;;4.05;;
18647;SDS011;9453;50.294;18.644;2022-09-09T08:43:58;5.53;;;4.18;;
18647;SDS011;9453;50.294;18.644;2022-09-09T08:46:31;5.25;;;4.10;;
18647;SDS011;9453;50.294;18.644;2022-09-09T08:49:11;4.57;;;4.00;;
18647;SDS011;9453;50.294;18.644;2022-09-09T08:51:49;5.38;;;4.28;;
18647;SDS011;9453;50.294;18.644;2022-09-09T08:54:17;7.00;;;4.55;;
18647;SDS011;9453;50.294;18.644;2022-09-09T08:56:44;4.82;;;4.15;;
18647;SDS011;9453;50.294;18.644;2022-09-09T08:59:11;4.72;;;3.88;;
18647;SDS011;9453;50.294;18.644;2022-09-09T09:02:00;6.45;;;3.70;;
18647;SDS011;9453;50.294;18.644;2022-09-09T09:04:43;4.38;;;3.17;;
18647;SDS011;9453;50.294;18.644;2022-09-09T09:07:28;4.90;;;3.10;;
18647;SDS011;9453;50.294;18.644;2022-09-09T09:10:02;4.03;;;3.30;;
18647;SDS011;9453;50.294;18.644;2022-09-09T09:12:37;4.03;;;3.53;;
18647;SDS011;9453;50.294;18.644;2022-09-09T09:15:10;4.13;;;3.72;;
18647;SDS011;9453;50.294;18.644;2022-09-09T09:17:44;3.63;;;3.25;;
18647;SDS011;9453;50.294;18.644;2022-09-09T09:20:12;3.70;;;3.30;;
18647;SDS011;9453;50.294;18.644;2022-09-09T09:22:42;6.32;;;3.85;;
18647;SDS011;9453;50.294;18.644;2022-09-09T09:25:15;5.20;;;3.47;;
18647;SDS011;9453;50.294;18.644;2022-09-09T09:27:45;3.33;;;3.03;;
18647;SDS011;9453;50.294;18.644;2022-09-09T09:30:20;3.63;;;3.22;;
18647;SDS011;9453;50.294;18.644;2022-09-09T09:32:51;4.45;;;3.33;;
18647;SDS011;9453;50.294;18.644;2022-09-09T09:35:21;3.80;;;3.50;;
18647;SDS011;9453;50.294;18.644;2022-09-09T09:37:48;3.35;;;3.05;;
18647;SDS011;9453;50.294;18.644;2022-09-09T09:40:16;4.40;;;3.42;;
18647;SDS011;9453;50.294;18.644;2022-09-09T09:42:51;3.05;;;2.75;;
18647;SDS011;9453;50.294;18.644;2022-09-09T09:45:25;3.70;;;3.13;;
18647;SDS011;9453;50.294;18.644;2022-09-09T09:48:01;3.30;;;3.00;;
18647;SDS011;9453;50.294;18.644;2022-09-09T09:50:30;4.45;;;2.92;;
18647;SDS011;9453;50.294;18.644;2022-09-09T09:52:58;4.07;;;3.38;;
18647;SDS011;9453;50.294;18.644;2022-09-09T09:55:28;3.05;;;2.75;;
18647;SDS011;9453;50.294;18.644;2022-09-09T09:58:02;3.13;;;2.85;;
18647;SDS011;9453;50.294;18.644;2022-09-09T10:00:30;3.72;;;2.45;;
18647;SDS011;9453;50.294;18.644;2022-09-09T10:03:01;3.20;;;2.60;;
18647;SDS011;9453;50.294;18.644;2022-09-09T10:05:38;3.60;;;3.10;;
18647;SDS011;9453;50.294;18.644;2022-09-09T10:08:12;3.53;;;2.70;;
18647;SDS011;9453;50.294;18.644;2022-09-09T10:13:53;4.25;;;2.60;;
18647;SDS011;9453;50.294;18.644;2022-09-09T10:16:34;3.75;;;2.40;;
18647;SDS011;9453;50.294;18.644;2022-09-09T10:19:15;2.80;;;2.50;;
18647;SDS011;9453;50.294;18.644;2022-09-09T10:21:55;5.78;;;2.28;;
18647;SDS011;9453;50.294;18.644;2022-09-09T10:27:46;2.35;;;2.05;;
18647;SDS011;9453;50.294;18.644;2022-09-09T10:30:28;4.10;;;2.10;;
18647;SDS011;9453;50.294;18.644;2022-09-09T10:33:04;2.97;;;2.28;;
18647;SDS011;9453;50.294;18.644;2022-09-09T10:35:37;2.60;;;1.92;;
18647;SDS011;9453;50.294;18.644;2022-09-09T10:38:17;3.08;;;2.10;;
18647;SDS011;9453;50.294;18.644;2022-09-09T10:41:01;3.17;;;2.10;;
18647;SDS011;9453;50.294;18.644;2022-09-09T10:43:45;2.53;;;2.33;;
18647;SDS011;9453;50.294;18.644;2022-09-09T10:46:27;4.78;;;2.05;;
18647;SDS011;9453;50.294;18.644;2022-09-09T10:49:03;2.45;;;2.25;;
18647;SDS011;9453;50.294;18.644;2022-09-09T10:51:44;2.22;;;2.00;;
18647;SDS011;9453;50.294;18.644;2022-09-09T10:57:11;2.78;;;2.45;;
18647;SDS011;9453;50.294;18.644;2022-09-09T10:59:42;3.03;;;1.90;;
18647;SDS011;9453;50.294;18.644;2022-09-09T11:02:14;2.20;;;1.85;;
18647;SDS011;9453;50.294;18.644;2022-09-09T11:04:47;2.70;;;1.90;;
18647;SDS011;9453;50.294;18.644;2022-09-09T11:07:22;2.72;;;1.90;;
18647;SDS011;9453;50.294;18.644;2022-09-09T11:09:54;2.20;;;1.98;;
18647;SDS011;9453;50.294;18.644;2022-09-09T11:12:31;2.65;;;1.98;;
18647;SDS011;9453;50.294;18.644;2022-09-09T11:15:04;3.33;;;1.52;;
18647;SDS011;9453;50.294;18.644;2022-09-09T11:17:35;3.17;;;1.75;;
18647;SDS011;9453;50.294;18.644;2022-09-09T11:20:10;2.38;;;1.80;;
18647;SDS011;9453;50.294;18.644;2022-09-09T11:22:42;1.70;;;1.60;;
18647;SDS011;9453;50.294;18.644;2022-09-09T11:25:14;1.60;;;1.50;;
18647;SDS011;9453;50.294;18.644;2022-09-09T11:27:44;4.53;;;1.48;;
18647;SDS011;9453;50.294;18.644;2022-09-09T11:30:25;1.45;;;1.35;;
18647;SDS011;9453;50.294;18.644;2022-09-09T11:33:03;2.20;;;1.40;;
18647;SDS011;9453;50.294;18.644;2022-09-09T11:35:58;1.60;;;1.48;;
18647;SDS011;9453;50.294;18.644;2022-09-09T11:38:36;3.00;;;1.40;;
18647;SDS011;9453;50.294;18.644;2022-09-09T11:41:11;1.52;;;1.42;;
18647;SDS011;9453;50.294;18.644;2022-09-09T11:43:40;1.67;;;1.48;;
18647;SDS011;9453;50.294;18.644;2022-09-09T11:46:09;2.75;;;1.63;;
18647;SDS011;9453;50.294;18.644;2022-09-09T11:48:39;2.50;;;1.90;;
18647;SDS011;9453;50.294;18.644;2022-09-09T11:51:09;3.75;;;1.83;;
18647;SDS011;9453;50.294;18.644;2022-09-09T11:53:49;1.80;;;1.55;;
18647;SDS011;9453;50.294;18.644;2022-09-09T11:56:24;2.47;;;1.73;;
18647;SDS011;9453;50.294;18.644;2022-09-09T11:58:54;5.38;;;1.80;;
18647;SDS011;9453;50.294;18.644;2022-09-09T12:01:36;3.38;;;1.80;;
18647;SDS011;9453;50.294;18.644;2022-09-09T12:07:02;1.67;;;1.30;;
18647;SDS011;9453;50.294;18.644;2022-09-09T12:09:33;2.38;;;1.42;;
18647;SDS011;9453;50.294;18.644;2022-09-09T12:12:24;2.35;;;1.50;;
18647;SDS011;9453;50.294;18.644;2022-09-09T12:15:00;1.92;;;1.50;;
18647;SDS011;9453;50.294;18.644;2022-09-09T12:17:58;1.33;;;1.20;;
18647;SDS011;9453;50.294;18.644;2022-09-09T12:20:30;1.20;;;1.10;;
18647;SDS011;9453;50.294;18.644;2022-09-09T12:26:03;2.13;;;1.20;;
18647;SDS011;9453;50.294;18.644;2022-09-09T12:28:49;1.48;;;1.35;;
18647;SDS011;9453;50.294;18.644;2022-09-09T12:31:22;1.88;;;1.10;;
18647;SDS011;9453;50.294;18.644;2022-09-09T12:33:53;1.92;;;1.10;;
18647;SDS011;9453;50.294;18.644;2022-09-09T12:36:20;2.28;;;1.30;;
18647;SDS011;9453;50.294;18.644;2022-09-09T12:38:51;1.30;;;1.10;;
18647;SDS011;9453;50.294;18.644;2022-09-09T12:41:20;1.23;;;0.98;;
18647;SDS011;9453;50.294;18.644;2022-09-09T12:43:49;1.27;;;1.17;;
18647;SDS011;9453;50.294;18.644;2022-09-09T12:46:20;1.17;;;1.05;;
18647;SDS011;9453;50.294;18.644;2022-09-09T12:48:51;1.63;;;1.20;;
18647;SDS011;9453;50.294;18.644;2022-09-09T12:51:21;1.92;;;1.55;;
18647;SDS011;9453;50.294;18.644;2022-09-09T12:53:52;1.83;;;1.25;;
18647;SDS011;9453;50.294;18.644;2022-09-09T12:56:21;2.08;;;1.08;;
18647;SDS011;9453;50.294;18.644;2022-09-09T12:58:51;1.65;;;1.10;;
18647;SDS011;9453;50.294;18.644;2022-09-09T13:01:21;1.77;;;1.13;;
18647;SDS011;9453;50.294;18.644;2022-09-09T13:03:49;1.60;;;1.13;;
18647;SDS011;9453;50.294;18.644;2022-09-09T13:06:19;1.45;;;1.20;;
18647;SDS011;9453;50.294;18.644;2022-09-09T13:08:48;2.35;;;1.50;;
18647;SDS011;9453;50.294;18.644;2022-09-09T13:11:17;3.05;;;1.50;;
18647;SDS011;9453;50.294;18.644;2022-09-09T13:13:51;1.55;;;1.10;;
18647;SDS011;9453;50.294;18.644;2022-09-09T13:16:21;2.55;;;1.10;;
18647;SDS011;9453;50.294;18.644;2022-09-09T13:18:51;1.25;;;1.00;;
18647;SDS011;9453;50.294;18.644;2022-09-09T13:21:30;3.85;;;1.23;;
18647;SDS011;9453;50.294;18.644;2022-09-09T13:23:59;3.47;;;1.27;;
18647;SDS011;9453;50.294;18.644;2022-09-09T13:26:28;3.03;;;1.13;;
18647;SDS011;9453;50.294;18.644;2022-09-09T13:29:07;1.45;;;1.00;;
18647;SDS011;9453;50.294;18.644;2022-09-09T13:31:42;0.93;;;0.82;;
18647;SDS011;9453;50.294;18.644;2022-09-09T13:34:10;1.42;;;0.80;;
18647;SDS011;9453;50.294;18.644;2022-09-09T13:36:39;1.10;;;0.80;;
18647;SDS011;9453;50.294;18.644;2022-09-09T13:39:14;1.70;;;0.80;;
18647;SDS011;9453;50.294;18.644;2022-09-09T13:41:44;0.70;;;0.70;;
18647;SDS011;9453;50.294;18.644;2022-09-09T13:44:20;2.00;;;1.10;;
18647;SDS011;9453;50.294;18.644;2022-09-09T13:46:59;1.02;;;0.80;;
18647;SDS011;9453;50.294;18.644;2022-09-09T13:49:28;1.63;;;0.68;;
18647;SDS011;9453;50.294;18.644;2022-09-09T13:52:05;1.15;;;0.80;;
18647;SDS011;9453;50.294;18.644;2022-09-09T13:54:35;2.28;;;0.90;;
18647;SDS011;9453;50.294;18.644;2022-09-09T13:57:02;1.65;;;0.73;;
18647;SDS011;9453;50.294;18.644;2022-09-09T13:59:31;1.60;;;0.95;;
18647;SDS011;9453;50.294;18.644;2022-09-09T14:01:58;1.13;;;0.90;;
18647;SDS011;9453;50.294;18.644;2022-09-09T14:04:26;2.25;;;0.90;;
18647;SDS011;9453;50.294;18.644;2022-09-09T14:06:53;1.33;;;0.80;;
18647;SDS011;9453;50.294;18.644;2022-09-09T14:09:21;1.35;;;0.77;;
18647;SDS011;9453;50.294;18.644;2022-09-09T14:11:48;4.95;;;1.10;;
18647;SDS011;9453;50.294;18.644;2022-09-09T14:14:15;3.05;;;0.80;;
18647;SDS011;9453;50.294;18.644;2022-09-09T14:16:43;1.15;;;0.73;;
18647;SDS011;9453;50.294;18.644;2022-09-09T14:19:10;0.70;;;0.70;;
18647;SDS011;9453;50.294;18.644;2022-09-09T14:21:37;1.60;;;1.02;;
18647;SDS011;9453;50.294;18.644;2022-09-09T14:24:04;3.70;;;0.80;;
18647;SDS011;9453;50.294;18.644;2022-09-09T14:26:32;1.90;;;1.00;;
18647;SDS011;9453;50.294;18.644;2022-09-09T14:28:59;1.00;;;0.60;;
18647;SDS011;9453;50.294;18.644;2022-09-09T14:31:26;0.93;;;0.70;;
18647;SDS011;9453;50.294;18.644;2022-09-09T14:33:54;1.15;;;0.80;;
18647;SDS011;9453;50.294;18.644;2022-09-09T14:36:21;1.60;;;0.90;;
18647;SDS011;9453;50.294;18.644;2022-09-09T14:38:49;1.20;;;0.80;;
18647;SDS011;9453;50.294;18.644;2022-09-09T14:41:17;1.00;;;0.60;;
18647;SDS011;9453;50.294;18.644;2022-09-09T14:43:47;1.98;;;0.80;;
18647;SDS011;9453;50.294;18.644;2022-09-09T14:46:15;1.73;;;1.00;;
18647;SDS011;9453;50.294;18.644;2022-09-09T14:48:43;2.38;;;0.93;;
18647;SDS011;9453;50.294;18.644;2022-09-09T14:51:15;2.03;;;0.80;;
18647;SDS011;9453;50.294;18.644;2022-09-09T14:53:44;0.73;;;0.60;;
18647;SDS011;9453;50.294;18.644;2022-09-09T14:56:13;0.65;;;0.65;;
18647;SDS011;9453;50.294;18.644;2022-09-09T14:58:41;0.70;;;0.60;;
18647;SDS011;9453;50.294;18.644;2022-09-09T15:01:09;3.67;;;0.95;;
18647;SDS011;9453;50.294;18.644;2022-09-09T15:03:37;2.38;;;1.23;;
18647;SDS011;9453;50.294;18.644;2022-09-09T15:06:05;0.90;;;0.70;;
18647;SDS011;9453;50.294;18.644;2022-09-09T15:08:34;1.73;;;0.90;;
18647;SDS011;9453;50.294;18.644;2022-09-09T15:11:02;1.15;;;0.70;;
18647;SDS011;9453;50.294;18.644;2022-09-09T15:13:30;2.83;;;0.68;;
18647;SDS011;9453;50.294;18.644;2022-09-09T15:16:02;1.63;;;0.80;;
18647;SDS011;9453;50.294;18.644;2022-09-09T15:18:30;1.20;;;0.70;;
18647;SDS011;9453;50.294;18.644;2022-09-09T15:20:58;1.05;;;0.50;;
18647;SDS011;9453;50.294;18.644;2022-09-09T15:23:25;1.48;;;0.70;;
18647;SDS011;9453;50.294;18.644;2022-09-09T15:25:54;1.55;;;0.70;;
18647;SDS011;9453;50.294;18.644;2022-09-09T15:28:22;0.60;;;0.60;;
18647;SDS011;9453;50.294;18.644;2022-09-09T15:30:50;1.95;;;0.65;;
18647;SDS011;9453;50.294;18.644;2022-09-09T15:33:17;1.50;;;0.77;;
18647;SDS011;9453;50.294;18.644;2022-09-09T15:35:45;3.13;;;0.63;;
18647;SDS011;9453;50.294;18.644;2022-09-09T15:38:12;1.23;;;0.90;;
18647;SDS011;9453;50.294;18.644;2022-09-09T15:40:41;1.17;;;0.90;;
18647;SDS011;9453;50.294;18.644;2022-09-09T15:43:09;2.15;;;0.90;;
18647;SDS011;9453;50.294;18.644;2022-09-09T15:45:39;2.25;;;0.90;;
18647;SDS011;9453;50.294;18.644;2022-09-09T15:48:06;1.17;;;0.65;;
18647;SDS011;9453;50.294;18.644;2022-09-09T15:50:32;0.82;;;0.70;;
18647;SDS011;9453;50.294;18.644;2022-09-09T15:52:59;1.42;;;0.80;;
18647;SDS011;9453;50.294;18.644;2022-09-09T15:55:27;1.48;;;0.80;;
18647;SDS011;9453;50.294;18.644;2022-09-09T15:57:54;0.93;;;0.70;;
18647;SDS011;9453;50.294;18.644;2022-09-09T16:00:25;0.98;;;0.73;;
18647;SDS011;9453;50.294;18.644;2022-09-09T16:02:53;2.03;;;0.90;;
18647;SDS011;9453;50.294;18.644;2022-09-09T16:05:20;2.47;;;0.90;;
18647;SDS011;9453;50.294;18.644;2022-09-09T16:07:47;1.35;;;0.80;;
18647;SDS011;9453;50.294;18.644;2022-09-09T16:10:14;2.72;;;0.88;;
18647;SDS011;9453;50.294;18.644;2022-09-09T16:12:41;1.40;;;0.85;;
18647;SDS011;9453;50.294;18.644;2022-09-09T16:15:08;2.15;;;1.10;;
18647;SDS011;9453;50.294;18.644;2022-09-09T16:17:36;2.00;;;0.98;;
18647;SDS011;9453;50.294;18.644;2022-09-09T16:20:04;1.13;;;0.95;;
18647;SDS011;9453;50.294;18.644;2022-09-09T16:22:33;1.67;;;1.02;;
18647;SDS011;9453;50.294;18.644;2022-09-09T16:25:00;1.52;;;1.17;;
18647;SDS011;9453;50.294;18.644;2022-09-09T16:27:27;3.13;;;0.90;;
18647;SDS011;9453;50.294;18.644;2022-09-09T16:29:54;2.08;;;0.95;;
18647;SDS011;9453;50.294;18.644;2022-09-09T16:32:21;1.00;;;0.75;;
18647;SDS011;9453;50.294;18.644;2022-09-09T16:34:49;0.73;;;0.60;;
18647;SDS011;9453;50.294;18.644;2022-09-09T16:37:16;1.02;;;0.60;;
18647;SDS011;9453;50.294;18.644;2022-09-09T16:39:44;0.93;;;0.70;;
18647;SDS011;9453;50.294;18.644;2022-09-09T16:42:11;1.20;;;0.70;;
18647;SDS011;9453;50.294;18.644;2022-09-09T16:44:38;0.95;;;0.85;;
18647;SDS011;9453;50.294;18.644;2022-09-09T16:47:05;1.48;;;0.70;;
18647;SDS011;9453;50.294;18.644;2022-09-09T16:49:32;1.63;;;0.73;;
18647;SDS011;9453;50.294;18.644;2022-09-09T16:52:00;2.13;;;0.70;;
18647;SDS011;9453;50.294;18.644;2022-09-09T16:54:27;0.95;;;0.70;;
18647;SDS011;9453;50.294;18.644;2022-09-09T16:56:55;1.00;;;0.60;;
18647;SDS011;9453;50.294;18.644;2022-09-09T16:59:22;0.60;;;0.57;;
18647;SDS011;9453;50.294;18.644;2022-09-09T17:01:50;1.15;;;0.60;;
18647;SDS011;9453;50.294;18.644;2022-09-09T17:04:18;1.55;;;0.70;;
18647;SDS011;9453;50.294;18.644;2022-09-09T17:06:49;0.73;;;0.70;;
18647;SDS011;9453;50.294;18.644;2022-09-09T17:09:19;1.85;;;0.60;;
18647;SDS011;9453;50.294;18.644;2022-09-09T17:11:47;1.52;;;0.85;;
18647;SDS011;9453;50.294;18.644;2022-09-09T17:14:16;2.05;;;1.25;;
18647;SDS011;9453;50.294;18.644;2022-09-09T17:16:44;1.50;;;0.70;;
18647;SDS011;9453;50.294;18.644;2022-09-09T17:19:12;0.50;;;0.50;;
18647;SDS011;9453;50.294;18.644;2022-09-09T17:21:39;2.45;;;1.20;;
18647;SDS011;9453;50.294;18.644;2022-09-09T17:24:06;2.20;;;1.27;;
18647;SDS011;9453;50.294;18.644;2022-09-09T17:26:35;2.35;;;1.00;;
18647;SDS011;9453;50.294;18.644;2022-09-09T17:29:03;1.77;;;1.15;;
18647;SDS011;9453;50.294;18.644;2022-09-09T17:31:31;1.60;;;1.10;;
18647;SDS011;9453;50.294;18.644;2022-09-09T17:33:59;2.22;;;1.10;;
18647;SDS011;9453;50.294;18.644;2022-09-09T17:36:27;2.45;;;1.10;;
18647;SDS011;9453;50.294;18.644;2022-09-09T17:38:56;2.22;;;1.25;;
18647;SDS011;9453;50.294;18.644;2022-09-09T17:41:26;1.90;;;1.30;;
18647;SDS011;9453;50.294;18.644;2022-09-09T17:43:56;1.10;;;0.93;;
18647;SDS011;9453;50.294;18.644;2022-09-09T17:46:24;1.92;;;1.20;;
18647;SDS011;9453;50.294;18.644;2022-09-09T17:48:57;1.85;;;1.10;;
18647;SDS011;9453;50.294;18.644;2022-09-09T17:51:26;2.33;;;1.10;;
18647;SDS011;9453;50.294;18.644;2022-09-09T17:53:56;1.23;;;1.10;;
18647;SDS011;9453;50.294;18.644;2022-09-09T17:56:28;3.97;;;1.02;;
18647;SDS011;9453;50.294;18.644;2022-09-09T17:58:58;1.80;;;1.20;;
18647;SDS011;9453;50.294;18.644;2022-09-09T18:01:26;1.92;;;1.10;;
18647;SDS011;9453;50.294;18.644;2022-09-09T18:03:55;1.55;;;0.98;;
18647;SDS011;9453;50.294;18.644;2022-09-09T18:06:26;1.70;;;1.00;;
18647;SDS011;9453;50.294;18.644;2022-09-09T18:08:55;1.63;;;1.13;;
18647;SDS011;9453;50.294;18.644;2022-09-09T18:11:24;3.92;;;1.48;;
18647;SDS011;9453;50.294;18.644;2022-09-09T18:13:53;3.95;;;1.92;;
18647;SDS011;9453;50.294;18.644;2022-09-09T18:16:23;6.22;;;2.20;;
18647;SDS011;9453;50.294;18.644;2022-09-09T18:18:51;5.60;;;1.75;;
18647;SDS011;9453;50.294;18.644;2022-09-09T18:21:19;2.22;;;1.52;;
18647;SDS011;9453;50.294;18.644;2022-09-09T18:23:47;3.20;;;1.90;;
18647;SDS011;9453;50.294;18.644;2022-09-09T18:26:16;3.45;;;1.30;;
18647;SDS011;9453;50.294;18.644;2022-09-09T18:28:46;2.33;;;1.55;;
18647;SDS011;9453;50.294;18.644;2022-09-09T18:31:17;3.10;;;1.67;;
18647;SDS011;9453;50.294;18.644;2022-09-09T18:33:48;4.70;;;1.63;;
18647;SDS011;9453;50.294;18.644;2022-09-09T18:36:18;4.38;;;1.83;;
18647;SDS011;9453;50.294;18.644;2022-09-09T18:38:47;5.53;;;2.33;;
18647;SDS011;9453;50.294;18.644;2022-09-09T18:41:15;5.07;;;2.55;;
18647;SDS011;9453;50.294;18.644;2022-09-09T18:43:46;8.65;;;2.25;;
18647;SDS011;9453;50.294;18.644;2022-09-09T18:46:15;5.28;;;2.35;;
18647;SDS011;9453;50.294;18.644;2022-09-09T18:48:43;7.45;;;3.38;;
18647;SDS011;9453;50.294;18.644;2022-09-09T18:51:14;8.00;;;3.78;;
18647;SDS011;9453;50.294;18.644;2022-09-09T18:53:48;10.25;;;3.67;;
18647;SDS011;9453;50.294;18.644;2022-09-09T18:56:17;9.95;;;4.57;;
18647;SDS011;9453;50.294;18.644;2022-09-09T18:58:44;12.00;;;5.22;;
18647;SDS011;9453;50.294;18.644;2022-09-09T19:01:13;11.98;;;4.13;;
18647;SDS011;9453;50.294;18.644;2022-09-09T19:03:41;10.77;;;4.00;;
18647;SDS011;9453;50.294;18.644;2022-09-09T19:06:08;11.77;;;3.83;;
18647;SDS011;9453;50.294;18.644;2022-09-09T19:08:39;8.50;;;3.95;;
18647;SDS011;9453;50.294;18.644;2022-09-09T19:11:07;7.10;;;3.53;;
18647;SDS011;9453;50.294;18.644;2022-09-09T19:13:36;7.55;;;3.40;;
18647;SDS011;9453;50.294;18.644;2022-09-09T19:16:04;8.45;;;3.80;;
18647;SDS011;9453;50.294;18.644;2022-09-09T19:18:32;5.60;;;3.03;;
18647;SDS011;9453;50.294;18.644;2022-09-09T19:21:08;5.68;;;3.00;;
18647;SDS011;9453;50.294;18.644;2022-09-09T19:23:36;6.45;;;3.38;;
18647;SDS011;9453;50.294;18.644;2022-09-09T19:26:07;8.70;;;3.25;;
18647;SDS011;9453;50.294;18.644;2022-09-09T19:28:35;6.35;;;3.08;;
18647;SDS011;9453;50.294;18.644;2022-09-09T19:31:04;5.82;;;2.85;;
18647;SDS011;9453;50.294;18.644;2022-09-09T19:33:32;5.18;;;2.97;;
18647;SDS011;9453;50.294;18.644;2022-09-09T19:36:00;5.43;;;2.85;;
18647;SDS011;9453;50.294;18.644;2022-09-09T19:38:28;4.45;;;2.30;;
18647;SDS011;9453;50.294;18.644;2022-09-09T19:41:01;6.57;;;2.95;;
18647;SDS011;9453;50.294;18.644;2022-09-09T19:43:30;5.68;;;2.97;;
18647;SDS011;9453;50.294;18.644;2022-09-09T19:45:58;7.15;;;3.20;;
18647;SDS011;9453;50.294;18.644;2022-09-09T19:48:26;6.95;;;3.67;;
18647;SDS011;9453;50.294;18.644;2022-09-09T19:50:55;5.60;;;3.35;;
18647;SDS011;9453;50.294;18.644;2022-09-09T19:53:28;4.82;;;3.40;;
18647;SDS011;9453;50.294;18.644;2022-09-09T19:55:55;7.53;;;3.35;;
18647;SDS011;9453;50.294;18.644;2022-09-09T19:58:22;8.35;;;3.35;;
18647;SDS011;9453;50.294;18.644;2022-09-09T20:00:51;6.25;;;3.75;;
18647;SDS011;9453;50.294;18.644;2022-09-09T20:03:18;5.50;;;3.20;;
18647;SDS011;9453;50.294;18.644;2022-09-09T20:05:45;6.45;;;3.63;;
18647;SDS011;9453;50.294;18.644;2022-09-09T20:08:14;8.70;;;3.83;;
18647;SDS011;9453;50.294;18.644;2022-09-09T20:10:48;8.40;;;3.97;;